Main page
METAR-TAF:

METAR-TAF

Airports :

Durham, England

Durham Tees Valley Airport

latitude: 54-31N, longitude: 001-25W, elevation: 37 m

Current weather observation

The report was made 27 minutes ago, at 20:20 UTC
Wind 10 kt from the Southwest
Temperature 17°C
Humidity 82%
Pressure 1009 hPa
Visibility 10 km or more
Few clouds at a height of 1900 ft
Broken clouds at a height of 2200 ft

METAR: EGNV 232020Z 23010KT 9999 FEW019 BKN022 17/14 Q1009

Time: 21:47 (20:47 UTC)

Forecast

The report was made 3 hours and 54 minutes ago, at 16:53 UTC
Forecast valid from 23 at 18 UTC to 23 at 21 UTC
Wind 12 kt from the West/Southwest
Visibility 10 km or more
Few clouds at a height of 1000 ft
Broken clouds at a height of 2500 ft
Probability 30% :
Temporary
from 23 at 18 UTC to 23 at 21 UTC
Wind 15 kt from the West/Southwest with gusts up to 25 kt
Visibility: 7000 m
light rain, drizzle

TAF: EGNV 231653Z 2318/2321 24012KT 9999 FEW010 BKN025 PROB30 TEMPO 2318/2321 25015G25KT 7000 -RADZ

Weather observations and forecasts of more than 4000 airports (METAR and TAF reports).

The available stations are represented by yellow and red dots on the map.

Hover mouse over dot to see the name of the station.

Then click to see weather observations and forecasts.

To change the map : click on the green buttons with a black cross to zoom in, on the green button with a dash to zoom out, or on the green arrows for adjacent maps.


METAR-TAF: